createdAt,value
2023-01-09T00:00:29.652Z,-10854.41
2023-01-09T00:03:35.950Z,-10840.84
2023-01-09T00:06:43.596Z,-10851.59
2023-01-09T00:09:49.720Z,-10838.19
2023-01-09T00:12:57.512Z,-10827.28
2023-01-09T00:16:05.015Z,-10841.53
2023-01-09T00:19:11.256Z,-10834.41
2023-01-09T00:22:17.354Z,-10840.84
2023-01-09T00:25:24.110Z,-10827.81
2023-01-09T00:28:31.911Z,-10840.56
2023-01-09T00:31:38.196Z,-10834.97
2023-01-09T00:34:44.447Z,-10840.56
2023-01-09T00:37:50.834Z,-10852.59
2023-01-09T00:40:57.648Z,-10840.56
2023-01-09T00:44:09.967Z,-10852.72
2023-01-09T00:47:21.638Z,-10855.38
2023-01-09T00:50:32.433Z,-10862.09
2023-01-09T00:53:42.856Z,-10862.66
2023-01-09T00:56:50.289Z,-10864.06
2023-01-09T00:59:59.398Z,-10833.16
2023-01-09T01:03:06.107Z,-10835.25
2023-01-09T01:06:30.308Z,-10835.53
2023-01-09T01:09:36.965Z,-10829.94
2023-01-09T01:12:43.856Z,-10856.91
2023-01-09T01:15:51.617Z,-10851.31
2023-01-09T01:18:57.872Z,-10869.66
2023-01-09T01:22:04.034Z,-10854.41
2023-01-09T01:25:11.667Z,-10848.53
2023-01-09T01:28:18.155Z,-10861.25
2023-01-09T01:31:25.763Z,-10857.75
2023-01-09T01:34:32.223Z,-10876.63
2023-01-09T01:37:39.595Z,-10870.34
2023-01-09T01:40:45.887Z,-10855.66
2023-01-09T01:43:54.785Z,-10859.16
2023-01-09T01:47:03.142Z,-10872.16
2023-01-09T01:50:15.803Z,-10877.47
2023-01-09T01:53:26.716Z,-10878.59
2023-01-09T01:56:38.798Z,-10880.28
2023-01-09T01:59:50.477Z,-10881.69
2023-01-09T02:02:58.875Z,-10875.94
2023-01-09T02:06:06.102Z,-10874.69
2023-01-09T02:09:15.381Z,-10873.84
2023-01-09T02:12:24.908Z,-10864.06
2023-01-09T02:15:41.112Z,-10876.09
2023-01-09T02:18:52.463Z,-10862.22
2023-01-09T02:22:09.858Z,-10874.41
2023-01-09T02:25:46.531Z,-10866.16
2023-01-09T02:29:47.020Z,-10863.34
2023-01-09T02:33:07.843Z,-10866.72
2023-01-09T02:36:24.172Z,-10879.72
2023-01-09T02:39:38.673Z,-10869.66
2023-01-09T02:42:47.019Z,-10873.97
2023-01-09T02:45:53.441Z,-10883.91
2023-01-09T02:49:00.998Z,-10878.19
2023-01-09T02:52:34.955Z,-10878.47
2023-01-09T02:55:53.138Z,-10884.75
2023-01-09T02:59:15.272Z,-10889.66
2023-01-09T03:02:36.696Z,-10893.72
2023-01-09T03:05:51.147Z,-10891.19
2023-01-09T03:09:02.630Z,-10885.03
2023-01-09T03:12:18.302Z,-10873.84
2023-01-09T03:15:30.277Z,-10877.75
2023-01-09T03:18:38.511Z,-10882.09
2023-01-09T03:21:47.844Z,-10879.31
2023-01-09T03:24:54.059Z,-10894.84
2023-01-09T03:28:02.386Z,-10887.69
2023-01-09T03:31:08.540Z,-10892.03
2023-01-09T03:34:14.703Z,-10898.19
2023-01-09T03:37:22.527Z,-10904.34
2023-01-09T03:40:29.030Z,-10887.56
2023-01-09T03:43:36.058Z,-10893.44
2023-01-09T03:46:42.251Z,-10898.75
2023-01-09T03:49:48.288Z,-10892.88
2023-01-09T03:52:56.429Z,-10900.16
2023-01-09T03:56:03.097Z,-10907.44
2023-01-09T03:59:09.536Z,-10903.38
2023-01-09T04:02:15.789Z,-10902.13
2023-01-09T04:05:21.981Z,-10907.84
2023-01-09T04:08:30.740Z,-10897.06
2023-01-09T04:11:36.992Z,-10901.13
2023-01-09T04:14:43.154Z,-10900.44
2023-01-09T04:17:49.475Z,-10907.44
2023-01-09T04:20:55.650Z,-10898.19
2023-01-09T04:24:03.221Z,-10904.91
2023-01-09T04:27:09.387Z,-10902.66
2023-01-09T04:30:16.226Z,-10900.44
2023-01-09T04:33:22.611Z,-10897.63
2023-01-09T04:36:28.865Z,-10898.19
2023-01-09T04:39:37.558Z,-10902.94
2023-01-09T04:42:44.140Z,-10892.47
2023-01-09T04:45:50.773Z,-10906.44
2023-01-09T04:48:57.219Z,-10895.13
2023-01-09T04:52:03.454Z,-10907.84
2023-01-09T04:55:11.691Z,-10909.69
2023-01-09T04:58:17.949Z,-10910.22
2023-01-09T05:01:24.787Z,-10910.78
2023-01-09T05:04:31.609Z,-10897.63
2023-01-09T05:07:38.319Z,-10904.22
2023-01-09T05:10:46.203Z,-10894.56
2023-01-09T05:13:53.017Z,-10903.22
2023-01-09T05:16:59.416Z,-10906.59
2023-01-09T05:20:06.287Z,-10904.22
2023-01-09T05:23:12.279Z,-10913.59
2023-01-09T05:26:23.392Z,-10916.97
2023-01-09T05:29:29.751Z,-10918.22
2023-01-09T05:32:36.109Z,-10912.47
2023-01-09T05:35:42.156Z,-10919.63
2023-01-09T05:38:48.496Z,-10917.66
2023-01-09T05:41:56.281Z,-10922.69
2023-01-09T05:45:02.623Z,-10921.44
2023-01-09T05:48:08.922Z,-10913.03
2023-01-09T05:51:15.512Z,-10924.09
2023-01-09T05:54:21.888Z,-10926.63
2023-01-09T05:57:30.022Z,-10912.47
2023-01-09T06:00:36.280Z,-10907.72
2023-01-09T06:03:43.064Z,-10922.28
2023-01-09T06:10:15.595Z,-10919.75
2023-01-09T06:13:23.467Z,-10919.19
2023-01-09T06:16:29.918Z,-10926.19
2023-01-09T06:19:36.225Z,-10925.06
2023-01-09T06:22:44.883Z,-10916.13
2023-01-09T06:25:51.481Z,-10923.97
2023-01-09T06:29:01.016Z,-10913.03
2023-01-09T06:32:07.883Z,-10912.19
2023-01-09T06:35:14.384Z,-10912.63
2023-01-09T06:38:21.283Z,-10916.69
2023-01-09T06:41:27.536Z,-10908.41
2023-01-09T06:44:37.362Z,-10908.84
2023-01-09T06:47:43.689Z,-10927.59
2023-01-09T06:50:50.318Z,-10931.66
2023-01-09T06:53:56.665Z,-10932.09
2023-01-09T06:57:03.616Z,-10939.34
2023-01-09T07:00:13.160Z,-10941.59
2023-01-09T07:03:22.373Z,-10945.53
2023-01-09T07:06:30.099Z,-10942.88
2023-01-09T07:09:36.450Z,-10936.97
2023-01-09T07:12:42.704Z,-10937.69
2023-01-09T07:15:50.893Z,-10936.00
2023-01-09T07:18:57.423Z,-10944.81
2023-01-09T07:22:03.956Z,-10946.37
2023-01-09T07:25:10.605Z,-10936.00
2023-01-09T07:28:17.166Z,-10948.88
2023-01-09T07:31:24.745Z,-10943.56
2023-01-09T07:34:31.374Z,-10936.41
2023-01-09T07:37:37.780Z,-10944.97
2023-01-09T07:40:43.975Z,-10951.25
2023-01-09T07:43:50.340Z,-10952.25
2023-01-09T07:46:57.937Z,-10942.72
2023-01-09T07:50:04.573Z,-10945.38
2023-01-09T07:53:11.038Z,-10953.94
2023-01-09T07:56:17.401Z,-10949.31
2023-01-09T07:59:23.452Z,-10955.06
2023-01-09T08:02:31.227Z,-10954.50
2023-01-09T08:05:37.391Z,-10958.69
2023-01-09T08:08:44.386Z,-10960.66
2023-01-09T08:11:50.953Z,-10954.06
2023-01-09T08:14:57.716Z,-10952.81
2023-01-09T08:18:05.679Z,-10962.75
2023-01-09T08:21:12.627Z,-10962.19
2023-01-09T08:24:18.920Z,-10965.69
2023-01-09T08:27:25.193Z,-10966.53
2023-01-09T08:30:31.343Z,-10971.88
2023-01-09T08:33:40.493Z,-10973.28
2023-01-09T08:36:46.902Z,-10971.72
2023-01-09T08:39:53.665Z,-10974.81
2023-01-09T08:43:18.011Z,-10974.09
2023-01-09T08:46:41.360Z,-10976.91
2023-01-09T08:49:49.127Z,-10975.78
2023-01-09T08:52:55.649Z,-10976.63
2023-01-09T08:56:01.788Z,-10979.84
2023-01-09T08:59:08.177Z,-10981.97
2023-01-09T09:02:14.145Z,-10984.63
2023-01-09T09:05:23.080Z,-10979.00
2023-01-09T09:08:29.596Z,-10985.75
2023-01-09T09:11:35.984Z,-10976.91
2023-01-09T09:14:59.755Z,-10973.97
2023-01-09T09:18:09.383Z,-10986.72
2023-01-09T09:21:17.152Z,-10986.44
2023-01-09T09:24:23.848Z,-10977.75
2023-01-09T09:27:30.566Z,-10981.53
2023-01-09T09:30:39.291Z,-10989.94
2023-01-09T09:33:45.727Z,-10994.16
2023-01-09T09:36:53.468Z,-10988.25
2023-01-09T09:40:09.786Z,-10998.09
2023-01-09T09:43:59.857Z,-11007.75
2023-01-09T09:47:13.923Z,-11012.25
2023-01-09T09:50:40.417Z,-11019.81
2023-01-09T09:53:52.893Z,-11013.09
2023-01-09T09:57:01.055Z,-11028.78
2023-01-09T10:00:09.214Z,-11032.00
2023-01-09T10:03:33.983Z,-11043.53
2023-01-09T10:06:45.156Z,-11039.72
2023-01-09T10:09:55.919Z,-11043.38
2023-01-09T10:13:23.652Z,-11064.16
2023-01-09T10:16:41.826Z,-11079.03
2023-01-09T10:20:25.970Z,-11084.22
2023-01-09T10:24:06.481Z,-11083.50
2023-01-09T10:27:23.058Z,-11060.63
2023-01-09T10:30:36.319Z,-11065.00
2023-01-09T10:33:56.028Z,-11088.16
2023-01-09T10:37:12.359Z,-11097.41
2023-01-09T10:40:23.501Z,-11107.41
2023-01-09T10:43:37.410Z,-11111.19
2023-01-09T10:46:50.402Z,-11117.66
2023-01-09T10:49:58.067Z,-11123.41
2023-01-09T10:53:16.509Z,-11125.38
2023-01-09T10:56:25.654Z,-11116.94
2023-01-09T10:59:33.570Z,-11122.28
2023-01-09T11:02:40.087Z,-11128.31
2023-01-09T11:05:52.318Z,-11129.88
2023-01-09T11:09:01.560Z,-11144.19
2023-01-09T11:12:26.337Z,-11140.25
2023-01-09T11:15:34.225Z,-11140.53
2023-01-09T11:18:49.283Z,-11145.19
2023-01-09T11:22:08.111Z,-11156.28
2023-01-09T11:25:15.571Z,-11153.75
2023-01-09T11:28:22.228Z,-11162.31
2023-01-09T11:31:30.543Z,-11162.03
2023-01-09T11:34:39.191Z,-11133.22
2023-01-09T11:37:46.469Z,-11144.75
2023-01-09T11:40:55.806Z,-11133.09
2023-01-09T11:44:05.733Z,-11139.41
2023-01-09T11:47:35.794Z,-11145.03
2023-01-09T11:50:42.184Z,-11152.91
2023-01-09T11:54:22.213Z,-11166.13
2023-01-09T11:57:28.826Z,-11162.47
2023-01-09T12:00:45.609Z,-11148.41
2023-01-09T12:04:10.961Z,-11146.16
2023-01-09T12:07:35.621Z,-11160.63
2023-01-09T12:10:59.317Z,-11161.91
2023-01-09T12:14:16.607Z,-11163.31
2023-01-09T12:18:03.436Z,-11163.59
2023-01-09T12:21:33.997Z,-11146.44
2023-01-09T12:25:02.401Z,-11126.22
2023-01-09T12:28:48.142Z,-11141.66
2023-01-09T12:32:11.584Z,-11133.09
2023-01-09T12:35:30.280Z,-11123.41
2023-01-09T12:38:49.116Z,-11124.25
2023-01-09T12:42:18.573Z,-11124.09
2023-01-09T12:45:42.963Z,-11106.13
2023-01-09T12:49:12.888Z,-11116.38
2023-01-09T12:52:23.573Z,-11112.44
2023-01-09T12:55:36.211Z,-11112.44
2023-01-09T12:58:48.483Z,-11120.16
2023-01-09T13:01:55.561Z,-11119.47
2023-01-09T13:05:04.120Z,-11120.31
2023-01-09T13:08:16.919Z,-11125.09
2023-01-09T13:11:30.166Z,-11153.75
2023-01-09T13:14:50.414Z,-11171.19
2023-01-09T13:18:01.817Z,-11127.19
2023-01-09T13:21:09.784Z,-11134.34
2023-01-09T13:24:21.325Z,-11126.06
2023-01-09T13:27:34.673Z,-11138.00
2023-01-09T13:31:01.098Z,-11125.38
2023-01-09T13:34:21.567Z,-11131.25
2023-01-09T13:37:30.887Z,-11124.38
2023-01-09T13:40:38.228Z,-11116.25
2023-01-09T13:43:57.227Z,-11123.97
2023-01-09T13:47:04.673Z,-11144.91
2023-01-09T13:50:27.178Z,-11132.09
2023-01-09T13:53:49.576Z,-11126.63
2023-01-09T13:57:29.700Z,-11108.37
2023-01-09T14:00:55.887Z,-11109.06
2023-01-09T14:04:39.510Z,-11118.63
2023-01-09T14:07:49.210Z,-11112.88
2023-01-09T14:10:58.188Z,-11110.47
2023-01-09T14:14:09.239Z,-11104.31
2023-01-09T14:17:24.368Z,-11102.62
2023-01-09T14:20:38.002Z,-11093.22
2023-01-09T14:23:54.952Z,-11093.50
2023-01-09T14:27:03.631Z,-11096.00
2023-01-09T14:30:31.974Z,-11089.41
2023-01-09T14:33:40.077Z,-11083.50
2023-01-09T14:36:46.653Z,-11081.56
2023-01-09T14:39:53.375Z,-11085.63
2023-01-09T14:43:10.384Z,-11079.59
2023-01-09T14:46:19.812Z,-11079.88
2023-01-09T14:49:35.752Z,-11072.28
2023-01-09T14:52:49.086Z,-11067.66
2023-01-09T14:55:58.156Z,-11070.88
2023-01-09T14:59:11.624Z,-11066.38
2023-01-09T15:02:22.806Z,-11069.06
2023-01-09T15:05:32.899Z,-11061.34
2023-01-09T15:08:39.486Z,-11054.03
2023-01-09T15:11:46.465Z,-11047.31
2023-01-09T15:14:56.048Z,-11056.00
2023-01-09T15:18:06.537Z,-11047.31
2023-01-09T15:21:21.437Z,-11051.94
2023-01-09T15:24:30.558Z,-11032.00
2023-01-09T15:27:48.419Z,-11036.78
2023-01-09T15:30:57.472Z,-11031.31
2023-01-09T15:34:05.750Z,-11047.03
2023-01-09T15:37:26.823Z,-11039.16
2023-01-09T15:40:35.720Z,-11044.50
2023-01-09T15:43:45.370Z,-11044.50
2023-01-09T15:46:52.156Z,-11036.94
2023-01-09T15:49:59.932Z,-11040.28
2023-01-09T15:53:11.529Z,-11034.41
2023-01-09T15:56:24.276Z,-11030.19
2023-01-09T15:59:30.671Z,-11014.91
2023-01-09T16:02:54.675Z,-11008.59
2023-01-09T16:06:08.377Z,-11011.53
2023-01-09T16:09:21.204Z,-11020.78
2023-01-09T16:12:30.032Z,-11006.06
2023-01-09T16:15:36.745Z,-11013.09
2023-01-09T16:18:51.887Z,-11008.88
2023-01-09T16:21:58.859Z,-11010.28
2023-01-09T16:25:28.969Z,-11017.16
2023-01-09T16:28:35.695Z,-11009.00
2023-01-09T16:31:42.184Z,-11013.22
2023-01-09T16:34:52.259Z,-11005.50
2023-01-09T16:37:59.399Z,-11004.66
2023-01-09T16:41:40.713Z,-11010.56
2023-01-09T16:44:47.107Z,-11022.75
2023-01-09T16:47:53.754Z,-11024.16
2023-01-09T16:51:00.143Z,-11020.50
2023-01-09T16:54:06.807Z,-11027.94
2023-01-09T16:57:18.377Z,-11030.19
2023-01-09T17:00:24.938Z,-11030.47
2023-01-09T17:03:31.239Z,-11032.16
2023-01-09T17:06:39.117Z,-11035.66
2023-01-09T17:09:45.933Z,-11030.63
2023-01-09T17:12:53.559Z,-11027.09
2023-01-09T17:16:00.665Z,-11035.81
2023-01-09T17:19:06.883Z,-11036.78
2023-01-09T17:22:13.475Z,-11029.78
2023-01-09T17:25:36.879Z,-11033.00
2023-01-09T17:28:47.847Z,-11032.00
2023-01-09T17:31:54.362Z,-11031.16
2023-01-09T17:35:00.596Z,-11027.81
2023-01-09T17:38:07.085Z,-11029.91
2023-01-09T17:41:14.430Z,-11039.16
2023-01-09T17:44:22.165Z,-11034.25
2023-01-09T17:47:28.810Z,-11044.78
2023-01-09T17:50:36.469Z,-11036.22
2023-01-09T17:53:42.815Z,-11043.38
2023-01-09T17:56:51.348Z,-11043.53
2023-01-09T17:59:59.293Z,-11039.72
2023-01-09T18:03:07.660Z,-11038.75
2023-01-09T18:06:14.890Z,-11040.56
2023-01-09T18:09:20.966Z,-11040.56
2023-01-09T18:12:27.316Z,-11032.72
2023-01-09T18:15:34.727Z,-11036.09
2023-01-09T18:18:41.835Z,-11038.59
2023-01-09T18:21:48.153Z,-11040.28
2023-01-09T18:24:54.179Z,-11042.81
2023-01-09T18:28:01.235Z,-11047.72
2023-01-09T18:31:09.206Z,-11038.59
2023-01-09T18:34:15.492Z,-11042.25
2023-01-09T18:37:21.747Z,-11043.53
2023-01-09T18:40:28.011Z,-11047.88
2023-01-09T18:43:34.394Z,-11040.44
2023-01-09T18:46:43.654Z,-11050.69
2023-01-09T18:49:50.165Z,-11042.53
2023-01-09T18:52:56.350Z,-11046.59
2023-01-09T18:56:05.330Z,-11046.03
2023-01-09T18:59:12.409Z,-11047.31
2023-01-09T19:02:23.049Z,-11048.72
2023-01-09T19:05:29.648Z,-11032.72
2023-01-09T19:08:37.196Z,-11037.50
2023-01-09T19:11:44.515Z,-11041.56
2023-01-09T19:14:50.917Z,-11041.13
2023-01-09T19:17:59.026Z,-11044.66
2023-01-09T19:21:11.605Z,-11048.28
2023-01-09T19:24:20.301Z,-11052.06
2023-01-09T19:27:29.227Z,-11051.38
2023-01-09T19:30:36.858Z,-11048.44
2023-01-09T19:33:44.886Z,-11049.28
2023-01-09T19:36:51.704Z,-11049.97
2023-01-09T19:39:58.280Z,-11050.25
2023-01-09T19:43:04.626Z,-11050.53
2023-01-09T19:46:12.867Z,-11048.16
2023-01-09T19:49:20.840Z,-11043.25
2023-01-09T19:52:27.339Z,-11045.78
2023-01-09T19:55:33.676Z,-11046.19
2023-01-09T19:58:40.080Z,-11045.91
2023-01-09T20:01:48.072Z,-11049.00
2023-01-09T20:04:55.732Z,-11047.59
2023-01-09T20:08:06.297Z,-11046.88
2023-01-09T20:11:12.858Z,-11051.25
2023-01-09T20:14:20.925Z,-11041.97
2023-01-09T20:17:27.459Z,-11043.66
2023-01-09T20:20:35.327Z,-11041.13
2023-01-09T20:23:41.598Z,-11040.84
2023-01-09T20:26:47.944Z,-11035.81
2023-01-09T20:29:54.172Z,-11030.75
2023-01-09T20:33:00.646Z,-11027.94
2023-01-09T20:36:09.605Z,-11030.91
2023-01-09T20:39:16.130Z,-11033.97
2023-01-09T20:42:22.302Z,-11034.97
2023-01-09T20:45:28.885Z,-11032.16
2023-01-09T20:48:35.305Z,-11039.16
2023-01-09T20:51:46.147Z,-11036.78
2023-01-09T20:54:52.205Z,-11035.25
2023-01-09T20:57:58.747Z,-11034.69
2023-01-09T21:01:08.867Z,-11036.94
2023-01-09T21:04:15.272Z,-11037.78
2023-01-09T21:07:25.041Z,-11038.34
2023-01-09T21:10:31.268Z,-11035.38
2023-01-09T21:13:37.440Z,-11033.69
2023-01-09T21:16:53.718Z,-11036.94
2023-01-09T21:20:01.069Z,-11032.84
2023-01-09T21:23:10.474Z,-11032.44
2023-01-09T21:26:18.884Z,-11034.53
2023-01-09T21:29:25.564Z,-11031.31
2023-01-09T21:32:32.901Z,-11028.50
2023-01-09T21:35:39.152Z,-11034.41
2023-01-09T21:38:47.754Z,-11039.88
2023-01-09T21:42:11.309Z,-11036.22
2023-01-09T21:45:36.789Z,-11040.00
2023-01-09T21:48:43.267Z,-11031.31
2023-01-09T21:51:49.704Z,-11031.88
2023-01-09T21:54:58.885Z,-11037.50
2023-01-09T21:58:05.429Z,-11035.53
2023-01-09T22:01:11.962Z,-11035.38
2023-01-09T22:04:19.687Z,-11041.97
2023-01-09T22:07:26.438Z,-11039.72
2023-01-09T22:10:34.322Z,-11035.25
2023-01-09T22:13:40.660Z,-11036.94
2023-01-09T22:16:47.604Z,-11040.72
2023-01-09T22:19:54.025Z,-11040.00
2023-01-09T22:23:00.409Z,-11039.16
2023-01-09T22:26:13.237Z,-11036.66
2023-01-09T22:29:19.806Z,-11039.72
2023-01-09T22:32:26.127Z,-11039.03
2023-01-09T22:35:32.595Z,-11038.06
2023-01-09T22:38:39.669Z,-11043.38
2023-01-09T22:41:52.152Z,-11036.78
2023-01-09T22:44:58.716Z,-11038.47
2023-01-09T22:48:05.138Z,-11048.44
2023-01-09T22:51:14.767Z,-11041.41
2023-01-09T22:54:21.766Z,-11039.88
2023-01-09T22:57:29.748Z,-11037.22
2023-01-09T23:00:36.192Z,-11034.25
2023-01-09T23:03:42.625Z,-11039.16
2023-01-09T23:06:48.944Z,-11036.50
2023-01-09T23:09:56.457Z,-11036.38
2023-01-09T23:13:04.392Z,-11035.94
2023-01-09T23:16:11.048Z,-11040.84
2023-01-09T23:19:17.748Z,-11032.72
2023-01-09T23:22:25.998Z,-11035.94
2023-01-09T23:25:32.524Z,-11041.41
2023-01-09T23:28:40.456Z,-11043.09
2023-01-09T23:31:46.887Z,-11040.44
2023-01-09T23:34:53.151Z,-11043.66
2023-01-09T23:37:59.682Z,-11041.41
2023-01-09T23:41:07.308Z,-11040.00
2023-01-09T23:44:14.352Z,-11041.28
2023-01-09T23:47:21.080Z,-11047.59
2023-01-09T23:50:27.397Z,-11042.69
2023-01-09T23:53:34.025Z,-11049.69
2023-01-09T23:56:40.499Z,-11047.88
2023-01-09T23:59:48.179Z,-11051.78
